sensor_id;sensor_type;location;lat;lon;timestamp;P1;durP1;ratioP1;P2;durP2;ratioP2
1947;SDS011;974;52.400;9.818;2022-07-30T00:00:53;6.50;;;4.83;;
1947;SDS011;974;52.400;9.818;2022-07-30T00:03:18;7.80;;;5.53;;
1947;SDS011;974;52.400;9.818;2022-07-30T00:05:44;8.70;;;4.33;;
1947;SDS011;974;52.400;9.818;2022-07-30T00:08:09;8.13;;;4.90;;
1947;SDS011;974;52.400;9.818;2022-07-30T00:10:35;9.00;;;5.40;;
1947;SDS011;974;52.400;9.818;2022-07-30T00:13:00;11.20;;;5.53;;
1947;SDS011;974;52.400;9.818;2022-07-30T00:15:26;8.90;;;4.80;;
1947;SDS011;974;52.400;9.818;2022-07-30T00:17:52;8.00;;;4.40;;
1947;SDS011;974;52.400;9.818;2022-07-30T00:20:17;12.30;;;5.40;;
1947;SDS011;974;52.400;9.818;2022-07-30T00:22:43;11.20;;;4.97;;
1947;SDS011;974;52.400;9.818;2022-07-30T00:25:08;9.53;;;5.20;;
1947;SDS011;974;52.400;9.818;2022-07-30T00:27:34;8.37;;;4.43;;
1947;SDS011;974;52.400;9.818;2022-07-30T00:30:00;10.20;;;4.87;;
1947;SDS011;974;52.400;9.818;2022-07-30T00:32:27;6.28;;;4.28;;
1947;SDS011;974;52.400;9.818;2022-07-30T00:34:52;7.77;;;5.03;;
1947;SDS011;974;52.400;9.818;2022-07-30T00:37:17;8.20;;;4.97;;
1947;SDS011;974;52.400;9.818;2022-07-30T00:39:43;8.77;;;4.97;;
1947;SDS011;974;52.400;9.818;2022-07-30T00:42:08;6.93;;;4.23;;
1947;SDS011;974;52.400;9.818;2022-07-30T00:44:34;10.03;;;4.47;;
1947;SDS011;974;52.400;9.818;2022-07-30T00:46:59;8.83;;;4.40;;
1947;SDS011;974;52.400;9.818;2022-07-30T00:49:25;9.40;;;4.80;;
1947;SDS011;974;52.400;9.818;2022-07-30T00:51:50;7.50;;;4.50;;
1947;SDS011;974;52.400;9.818;2022-07-30T00:54:16;9.43;;;4.60;;
1947;SDS011;974;52.400;9.818;2022-07-30T00:56:42;7.67;;;4.80;;
1947;SDS011;974;52.400;9.818;2022-07-30T00:59:07;7.00;;;4.60;;
1947;SDS011;974;52.400;9.818;2022-07-30T01:01:33;7.40;;;4.43;;
1947;SDS011;974;52.400;9.818;2022-07-30T01:03:59;12.93;;;5.45;;
1947;SDS011;974;52.400;9.818;2022-07-30T01:06:25;7.07;;;4.60;;
1947;SDS011;974;52.400;9.818;2022-07-30T01:08:51;6.63;;;4.27;;
1947;SDS011;974;52.400;9.818;2022-07-30T01:11:16;10.60;;;5.13;;
1947;SDS011;974;52.400;9.818;2022-07-30T01:13:42;6.50;;;4.07;;
1947;SDS011;974;52.400;9.818;2022-07-30T01:16:09;6.57;;;4.55;;
1947;SDS011;974;52.400;9.818;2022-07-30T01:18:34;6.60;;;4.53;;
1947;SDS011;974;52.400;9.818;2022-07-30T01:21:22;7.53;;;4.65;;
1947;SDS011;974;52.400;9.818;2022-07-30T01:24:08;7.47;;;4.03;;
1947;SDS011;974;52.400;9.818;2022-07-30T01:26:43;8.52;;;5.40;;
1947;SDS011;974;52.400;9.818;2022-07-30T01:29:08;9.00;;;4.73;;
1947;SDS011;974;52.400;9.818;2022-07-30T01:31:37;9.77;;;4.80;;
1947;SDS011;974;52.400;9.818;2022-07-30T01:34:03;8.75;;;5.57;;
1947;SDS011;974;52.400;9.818;2022-07-30T01:36:30;9.90;;;4.95;;
1947;SDS011;974;52.400;9.818;2022-07-30T01:38:56;7.85;;;4.50;;
1947;SDS011;974;52.400;9.818;2022-07-30T01:41:23;12.48;;;4.97;;
1947;SDS011;974;52.400;9.818;2022-07-30T01:43:49;6.97;;;4.25;;
1947;SDS011;974;52.400;9.818;2022-07-30T01:46:17;9.30;;;5.15;;
1947;SDS011;974;52.400;9.818;2022-07-30T01:48:43;12.32;;;4.82;;
1947;SDS011;974;52.400;9.818;2022-07-30T01:51:11;11.70;;;4.90;;
1947;SDS011;974;52.400;9.818;2022-07-30T01:53:37;7.25;;;4.75;;
1947;SDS011;974;52.400;9.818;2022-07-30T01:56:05;8.95;;;5.72;;
1947;SDS011;974;52.400;9.818;2022-07-30T01:58:34;5.95;;;4.68;;
1947;SDS011;974;52.400;9.818;2022-07-30T02:01:02;6.22;;;4.32;;
1947;SDS011;974;52.400;9.818;2022-07-30T02:03:28;7.40;;;4.67;;
1947;SDS011;974;52.400;9.818;2022-07-30T02:06:01;13.37;;;4.80;;
1947;SDS011;974;52.400;9.818;2022-07-30T02:08:39;8.68;;;4.65;;
1947;SDS011;974;52.400;9.818;2022-07-30T02:11:19;8.40;;;4.72;;
1947;SDS011;974;52.400;9.818;2022-07-30T02:14:25;8.05;;;4.75;;
1947;SDS011;974;52.400;9.818;2022-07-30T02:16:52;6.72;;;4.20;;
1947;SDS011;974;52.400;9.818;2022-07-30T02:19:20;8.48;;;4.47;;
1947;SDS011;974;52.400;9.818;2022-07-30T02:21:57;6.68;;;4.53;;
1947;SDS011;974;52.400;9.818;2022-07-30T02:24:27;8.35;;;3.83;;
1947;SDS011;974;52.400;9.818;2022-07-30T02:26:55;5.93;;;4.32;;
1947;SDS011;974;52.400;9.818;2022-07-30T02:29:25;11.50;;;4.75;;
1947;SDS011;974;52.400;9.818;2022-07-30T02:31:53;7.63;;;4.35;;
1947;SDS011;974;52.400;9.818;2022-07-30T02:34:21;8.15;;;4.32;;
1947;SDS011;974;52.400;9.818;2022-07-30T02:36:48;6.72;;;4.10;;
1947;SDS011;974;52.400;9.818;2022-07-30T02:39:15;7.97;;;4.20;;
1947;SDS011;974;52.400;9.818;2022-07-30T02:41:43;6.47;;;4.53;;
1947;SDS011;974;52.400;9.818;2022-07-30T02:44:10;7.90;;;4.15;;
1947;SDS011;974;52.400;9.818;2022-07-30T02:46:36;6.70;;;4.50;;
1947;SDS011;974;52.400;9.818;2022-07-30T02:49:03;7.68;;;4.95;;
1947;SDS011;974;52.400;9.818;2022-07-30T02:51:30;9.85;;;4.80;;
1947;SDS011;974;52.400;9.818;2022-07-30T02:53:56;10.48;;;5.22;;
1947;SDS011;974;52.400;9.818;2022-07-30T02:56:23;8.40;;;4.65;;
1947;SDS011;974;52.400;9.818;2022-07-30T02:58:51;6.35;;;4.25;;
1947;SDS011;974;52.400;9.818;2022-07-30T03:01:18;6.55;;;4.15;;
1947;SDS011;974;52.400;9.818;2022-07-30T03:03:47;10.25;;;5.25;;
1947;SDS011;974;52.400;9.818;2022-07-30T03:06:13;9.23;;;5.13;;
1947;SDS011;974;52.400;9.818;2022-07-30T03:08:41;12.60;;;5.35;;
1947;SDS011;974;52.400;9.818;2022-07-30T03:11:09;10.35;;;4.82;;
1947;SDS011;974;52.400;9.818;2022-07-30T03:13:36;7.22;;;4.75;;
1947;SDS011;974;52.400;9.818;2022-07-30T03:16:02;7.30;;;4.95;;
1947;SDS011;974;52.400;9.818;2022-07-30T03:18:31;17.02;;;6.15;;
1947;SDS011;974;52.400;9.818;2022-07-30T03:20:58;10.68;;;6.00;;
1947;SDS011;974;52.400;9.818;2022-07-30T03:23:25;8.50;;;6.07;;
1947;SDS011;974;52.400;9.818;2022-07-30T03:25:53;10.07;;;6.05;;
1947;SDS011;974;52.400;9.818;2022-07-30T03:28:21;8.02;;;5.35;;
1947;SDS011;974;52.400;9.818;2022-07-30T03:30:49;9.05;;;6.10;;
1947;SDS011;974;52.400;9.818;2022-07-30T03:33:15;12.25;;;6.65;;
1947;SDS011;974;52.400;9.818;2022-07-30T03:35:42;8.45;;;6.13;;
1947;SDS011;974;52.400;9.818;2022-07-30T03:38:11;14.00;;;6.60;;
1947;SDS011;974;52.400;9.818;2022-07-30T03:40:38;14.95;;;6.90;;
1947;SDS011;974;52.400;9.818;2022-07-30T03:43:06;9.85;;;7.00;;
1947;SDS011;974;52.400;9.818;2022-07-30T03:45:34;11.23;;;7.18;;
1947;SDS011;974;52.400;9.818;2022-07-30T03:48:01;11.32;;;6.80;;
1947;SDS011;974;52.400;9.818;2022-07-30T03:50:28;10.45;;;7.25;;
1947;SDS011;974;52.400;9.818;2022-07-30T03:52:54;8.77;;;6.00;;
1947;SDS011;974;52.400;9.818;2022-07-30T03:55:20;9.60;;;6.50;;
1947;SDS011;974;52.400;9.818;2022-07-30T03:57:47;10.75;;;7.07;;
1947;SDS011;974;52.400;9.818;2022-07-30T04:00:13;10.50;;;6.40;;
1947;SDS011;974;52.400;9.818;2022-07-30T04:02:40;9.15;;;6.47;;
1947;SDS011;974;52.400;9.818;2022-07-30T04:05:07;8.88;;;6.63;;
1947;SDS011;974;52.400;9.818;2022-07-30T04:07:33;10.95;;;6.90;;
1947;SDS011;974;52.400;9.818;2022-07-30T04:09:59;14.30;;;8.10;;
1947;SDS011;974;52.400;9.818;2022-07-30T04:12:24;8.70;;;7.10;;
1947;SDS011;974;52.400;9.818;2022-07-30T04:14:50;8.47;;;6.50;;
1947;SDS011;974;52.400;9.818;2022-07-30T04:17:20;10.48;;;6.47;;
1947;SDS011;974;52.400;9.818;2022-07-30T04:19:51;10.70;;;6.45;;
1947;SDS011;974;52.400;9.818;2022-07-30T04:22:22;10.10;;;7.18;;
1947;SDS011;974;52.400;9.818;2022-07-30T04:24:51;10.20;;;6.28;;
1947;SDS011;974;52.400;9.818;2022-07-30T04:27:17;12.35;;;7.38;;
1947;SDS011;974;52.400;9.818;2022-07-30T04:29:43;10.73;;;6.57;;
1947;SDS011;974;52.400;9.818;2022-07-30T04:32:09;10.50;;;6.90;;
1947;SDS011;974;52.400;9.818;2022-07-30T04:34:34;13.13;;;6.77;;
1947;SDS011;974;52.400;9.818;2022-07-30T04:37:00;10.65;;;6.65;;
1947;SDS011;974;52.400;9.818;2022-07-30T04:39:26;9.77;;;6.60;;
1947;SDS011;974;52.400;9.818;2022-07-30T04:41:51;9.77;;;7.10;;
1947;SDS011;974;52.400;9.818;2022-07-30T04:44:17;10.67;;;6.33;;
1947;SDS011;974;52.400;9.818;2022-07-30T04:46:43;11.65;;;5.90;;
1947;SDS011;974;52.400;9.818;2022-07-30T04:49:10;8.95;;;5.40;;
1947;SDS011;974;52.400;9.818;2022-07-30T04:51:37;8.80;;;6.70;;
1947;SDS011;974;52.400;9.818;2022-07-30T04:54:04;10.90;;;6.07;;
1947;SDS011;974;52.400;9.818;2022-07-30T04:56:32;17.30;;;6.40;;
1947;SDS011;974;52.400;9.818;2022-07-30T04:58:59;15.57;;;6.30;;
1947;SDS011;974;52.400;9.818;2022-07-30T05:01:26;9.20;;;6.15;;
1947;SDS011;974;52.400;9.818;2022-07-30T05:04:03;8.32;;;5.65;;
1947;SDS011;974;52.400;9.818;2022-07-30T05:06:31;12.23;;;6.15;;
1947;SDS011;974;52.400;9.818;2022-07-30T05:08:57;8.63;;;6.38;;
1947;SDS011;974;52.400;9.818;2022-07-30T05:11:23;9.83;;;6.50;;
1947;SDS011;974;52.400;9.818;2022-07-30T05:13:49;9.63;;;6.50;;
1947;SDS011;974;52.400;9.818;2022-07-30T05:16:14;8.50;;;5.93;;
1947;SDS011;974;52.400;9.818;2022-07-30T05:18:40;8.73;;;5.87;;
1947;SDS011;974;52.400;9.818;2022-07-30T05:21:06;9.40;;;6.20;;
1947;SDS011;974;52.400;9.818;2022-07-30T05:23:31;10.90;;;7.10;;
1947;SDS011;974;52.400;9.818;2022-07-30T05:25:57;8.20;;;6.47;;
1947;SDS011;974;52.400;9.818;2022-07-30T05:28:23;7.90;;;6.00;;
1947;SDS011;974;52.400;9.818;2022-07-30T05:30:50;8.60;;;6.20;;
1947;SDS011;974;52.400;9.818;2022-07-30T05:33:19;11.48;;;6.72;;
1947;SDS011;974;52.400;9.818;2022-07-30T05:35:46;10.23;;;6.13;;
1947;SDS011;974;52.400;9.818;2022-07-30T05:38:11;10.93;;;7.18;;
1947;SDS011;974;52.400;9.818;2022-07-30T05:40:38;8.70;;;6.55;;
1947;SDS011;974;52.400;9.818;2022-07-30T05:43:03;10.07;;;5.77;;
1947;SDS011;974;52.400;9.818;2022-07-30T05:45:29;11.37;;;7.10;;
1947;SDS011;974;52.400;9.818;2022-07-30T05:47:54;10.27;;;6.43;;
1947;SDS011;974;52.400;9.818;2022-07-30T05:50:20;10.70;;;6.50;;
1947;SDS011;974;52.400;9.818;2022-07-30T05:52:46;10.20;;;6.93;;
1947;SDS011;974;52.400;9.818;2022-07-30T05:55:11;10.50;;;7.07;;
1947;SDS011;974;52.400;9.818;2022-07-30T05:57:37;10.33;;;7.20;;
1947;SDS011;974;52.400;9.818;2022-07-30T06:00:05;9.50;;;7.07;;
1947;SDS011;974;52.400;9.818;2022-07-30T06:02:32;11.93;;;6.55;;
1947;SDS011;974;52.400;9.818;2022-07-30T06:04:58;10.33;;;7.50;;
1947;SDS011;974;52.400;9.818;2022-07-30T06:07:23;12.53;;;7.70;;
1947;SDS011;974;52.400;9.818;2022-07-30T06:09:49;10.30;;;7.13;;
1947;SDS011;974;52.400;9.818;2022-07-30T06:12:15;10.80;;;7.70;;
1947;SDS011;974;52.400;9.818;2022-07-30T06:14:40;10.10;;;7.00;;
1947;SDS011;974;52.400;9.818;2022-07-30T06:17:06;10.10;;;6.40;;
1947;SDS011;974;52.400;9.818;2022-07-30T06:19:32;11.80;;;7.20;;
1947;SDS011;974;52.400;9.818;2022-07-30T06:21:57;9.53;;;7.30;;
1947;SDS011;974;52.400;9.818;2022-07-30T06:24:23;11.33;;;6.70;;
1947;SDS011;974;52.400;9.818;2022-07-30T06:26:48;13.70;;;6.90;;
1947;SDS011;974;52.400;9.818;2022-07-30T06:29:14;12.10;;;7.20;;
1947;SDS011;974;52.400;9.818;2022-07-30T06:31:39;11.67;;;7.60;;
1947;SDS011;974;52.400;9.818;2022-07-30T06:34:05;8.53;;;6.30;;
1947;SDS011;974;52.400;9.818;2022-07-30T06:36:31;8.27;;;6.50;;
1947;SDS011;974;52.400;9.818;2022-07-30T06:38:56;10.10;;;7.40;;
1947;SDS011;974;52.400;9.818;2022-07-30T06:41:22;9.20;;;7.00;;
1947;SDS011;974;52.400;9.818;2022-07-30T06:43:47;10.00;;;7.20;;
1947;SDS011;974;52.400;9.818;2022-07-30T06:46:14;11.80;;;6.25;;
1947;SDS011;974;52.400;9.818;2022-07-30T06:48:40;9.57;;;6.80;;
1947;SDS011;974;52.400;9.818;2022-07-30T06:51:06;11.07;;;7.00;;
1947;SDS011;974;52.400;9.818;2022-07-30T06:53:31;8.27;;;6.27;;
1947;SDS011;974;52.400;9.818;2022-07-30T06:55:57;12.27;;;7.03;;
1947;SDS011;974;52.400;9.818;2022-07-30T06:58:23;9.17;;;6.03;;
1947;SDS011;974;52.400;9.818;2022-07-30T07:00:48;10.17;;;6.87;;
1947;SDS011;974;52.400;9.818;2022-07-30T07:03:14;9.80;;;6.40;;
1947;SDS011;974;52.400;9.818;2022-07-30T07:05:40;8.90;;;6.00;;
1947;SDS011;974;52.400;9.818;2022-07-30T07:08:05;9.50;;;6.13;;
1947;SDS011;974;52.400;9.818;2022-07-30T07:10:31;7.97;;;5.80;;
1947;SDS011;974;52.400;9.818;2022-07-30T07:12:56;7.37;;;5.57;;
1947;SDS011;974;52.400;9.818;2022-07-30T07:15:24;8.27;;;6.03;;
1947;SDS011;974;52.400;9.818;2022-07-30T07:17:50;9.43;;;6.50;;
1947;SDS011;974;52.400;9.818;2022-07-30T07:20:15;13.53;;;6.50;;
1947;SDS011;974;52.400;9.818;2022-07-30T07:22:41;8.20;;;6.30;;
1947;SDS011;974;52.400;9.818;2022-07-30T07:25:06;9.77;;;6.77;;
1947;SDS011;974;52.400;9.818;2022-07-30T07:27:32;10.43;;;6.53;;
1947;SDS011;974;52.400;9.818;2022-07-30T07:29:58;8.77;;;5.73;;
1947;SDS011;974;52.400;9.818;2022-07-30T07:32:23;9.47;;;6.40;;
1947;SDS011;974;52.400;9.818;2022-07-30T07:34:49;8.73;;;6.30;;
1947;SDS011;974;52.400;9.818;2022-07-30T07:37:14;9.80;;;5.93;;
1947;SDS011;974;52.400;9.818;2022-07-30T07:39:41;6.50;;;5.18;;
1947;SDS011;974;52.400;9.818;2022-07-30T07:42:06;6.70;;;4.67;;
1947;SDS011;974;52.400;9.818;2022-07-30T07:58:09;7.13;;;4.65;;
1947;SDS011;974;52.400;9.818;2022-07-30T08:00:37;7.35;;;4.78;;
1947;SDS011;974;52.400;9.818;2022-07-30T08:03:03;6.28;;;4.28;;
1947;SDS011;974;52.400;9.818;2022-07-30T08:05:29;6.90;;;4.00;;
1947;SDS011;974;52.400;9.818;2022-07-30T08:07:55;6.77;;;4.37;;
1947;SDS011;974;52.400;9.818;2022-07-30T08:10:20;5.97;;;4.10;;
1947;SDS011;974;52.400;9.818;2022-07-30T08:12:46;8.90;;;4.40;;
1947;SDS011;974;52.400;9.818;2022-07-30T08:15:12;5.97;;;4.40;;
1947;SDS011;974;52.400;9.818;2022-07-30T08:17:41;5.37;;;3.80;;
1947;SDS011;974;52.400;9.818;2022-07-30T08:20:08;8.38;;;4.50;;
1947;SDS011;974;52.400;9.818;2022-07-30T08:22:35;8.32;;;5.10;;
1947;SDS011;974;52.400;9.818;2022-07-30T08:25:00;5.37;;;4.07;;
1947;SDS011;974;52.400;9.818;2022-07-30T08:27:26;5.82;;;4.45;;
1947;SDS011;974;52.400;9.818;2022-07-30T08:29:52;6.47;;;4.20;;
1947;SDS011;974;52.400;9.818;2022-07-30T08:32:17;7.10;;;4.47;;
1947;SDS011;974;52.400;9.818;2022-07-30T08:34:43;7.70;;;4.13;;
1947;SDS011;974;52.400;9.818;2022-07-30T08:37:08;5.40;;;3.80;;
1947;SDS011;974;52.400;9.818;2022-07-30T08:39:34;6.10;;;4.00;;
1947;SDS011;974;52.400;9.818;2022-07-30T08:42:00;9.13;;;3.90;;
1947;SDS011;974;52.400;9.818;2022-07-30T08:44:27;6.82;;;3.50;;
1947;SDS011;974;52.400;9.818;2022-07-30T08:46:53;7.80;;;4.00;;
1947;SDS011;974;52.400;9.818;2022-07-30T08:49:21;6.70;;;4.10;;
1947;SDS011;974;52.400;9.818;2022-07-30T08:51:47;4.72;;;3.90;;
1947;SDS011;974;52.400;9.818;2022-07-30T08:54:15;6.55;;;4.03;;
1947;SDS011;974;52.400;9.818;2022-07-30T08:56:42;8.90;;;4.32;;
1947;SDS011;974;52.400;9.818;2022-07-30T08:59:08;7.25;;;4.30;;
1947;SDS011;974;52.400;9.818;2022-07-30T09:01:34;5.67;;;4.27;;
1947;SDS011;974;52.400;9.818;2022-07-30T09:04:00;7.03;;;4.00;;
1947;SDS011;974;52.400;9.818;2022-07-30T09:06:26;5.10;;;3.70;;
1947;SDS011;974;52.400;9.818;2022-07-30T09:08:51;6.27;;;4.50;;
1947;SDS011;974;52.400;9.818;2022-07-30T09:11:17;5.57;;;4.00;;
1947;SDS011;974;52.400;9.818;2022-07-30T09:13:43;8.00;;;4.00;;
1947;SDS011;974;52.400;9.818;2022-07-30T09:16:18;5.03;;;3.50;;
1947;SDS011;974;52.400;9.818;2022-07-30T09:18:44;5.37;;;3.17;;
1947;SDS011;974;52.400;9.818;2022-07-30T09:21:13;5.90;;;3.03;;
1947;SDS011;974;52.400;9.818;2022-07-30T09:23:58;4.73;;;3.27;;
1947;SDS011;974;52.400;9.818;2022-07-30T09:29:28;4.17;;;2.97;;
1947;SDS011;974;52.400;9.818;2022-07-30T09:36:51;5.67;;;3.37;;
1947;SDS011;974;52.400;9.818;2022-07-30T09:42:27;5.90;;;3.43;;
1947;SDS011;974;52.400;9.818;2022-07-30T09:45:03;6.40;;;3.90;;
1947;SDS011;974;52.400;9.818;2022-07-30T09:47:38;6.63;;;3.50;;
1947;SDS011;974;52.400;9.818;2022-07-30T09:50:06;5.47;;;3.77;;
1947;SDS011;974;52.400;9.818;2022-07-30T09:52:34;6.57;;;4.00;;
1947;SDS011;974;52.400;9.818;2022-07-30T09:55:00;5.20;;;3.53;;
1947;SDS011;974;52.400;9.818;2022-07-30T09:57:26;4.53;;;3.53;;
1947;SDS011;974;52.400;9.818;2022-07-30T09:59:52;5.60;;;4.10;;
1947;SDS011;974;52.400;9.818;2022-07-30T10:02:17;5.20;;;3.90;;
1947;SDS011;974;52.400;9.818;2022-07-30T10:04:43;11.90;;;5.17;;
1947;SDS011;974;52.400;9.818;2022-07-30T10:07:19;23.67;;;13.30;;
1947;SDS011;974;52.400;9.818;2022-07-30T10:09:46;6.87;;;3.70;;
1947;SDS011;974;52.400;9.818;2022-07-30T10:12:13;4.63;;;3.47;;
1947;SDS011;974;52.400;9.818;2022-07-30T10:14:42;5.60;;;3.20;;
1947;SDS011;974;52.400;9.818;2022-07-30T10:17:10;4.73;;;2.90;;
1947;SDS011;974;52.400;9.818;2022-07-30T10:19:36;5.20;;;3.90;;
1947;SDS011;974;52.400;9.818;2022-07-30T10:22:03;6.00;;;3.60;;
1947;SDS011;974;52.400;9.818;2022-07-30T10:24:29;8.53;;;4.40;;
1947;SDS011;974;52.400;9.818;2022-07-30T10:26:55;5.97;;;3.20;;
1947;SDS011;974;52.400;9.818;2022-07-30T10:29:21;4.53;;;2.87;;
1947;SDS011;974;52.400;9.818;2022-07-30T10:31:48;5.20;;;3.07;;
1947;SDS011;974;52.400;9.818;2022-07-30T10:34:15;8.77;;;3.70;;
1947;SDS011;974;52.400;9.818;2022-07-30T10:36:45;4.13;;;3.20;;
1947;SDS011;974;52.400;9.818;2022-07-30T10:39:17;5.53;;;2.90;;
1947;SDS011;974;52.400;9.818;2022-07-30T10:41:56;6.80;;;4.20;;
1947;SDS011;974;52.400;9.818;2022-07-30T10:44:54;5.40;;;3.80;;
1947;SDS011;974;52.400;9.818;2022-07-30T10:47:27;6.90;;;3.73;;
1947;SDS011;974;52.400;9.818;2022-07-30T10:50:10;6.77;;;3.53;;
1947;SDS011;974;52.400;9.818;2022-07-30T10:52:42;6.83;;;3.87;;
1947;SDS011;974;52.400;9.818;2022-07-30T10:55:12;4.87;;;3.50;;
1947;SDS011;974;52.400;9.818;2022-07-30T10:58:00;7.40;;;3.60;;
1947;SDS011;974;52.400;9.818;2022-07-30T11:05:43;4.20;;;3.13;;
1947;SDS011;974;52.400;9.818;2022-07-30T11:10:58;4.63;;;3.57;;
1947;SDS011;974;52.400;9.818;2022-07-30T11:16:20;6.00;;;3.40;;
1947;SDS011;974;52.400;9.818;2022-07-30T11:22:20;4.10;;;2.83;;
1947;SDS011;974;52.400;9.818;2022-07-30T11:24:50;5.37;;;2.97;;
1947;SDS011;974;52.400;9.818;2022-07-30T11:35:09;6.50;;;4.10;;
1947;SDS011;974;52.400;9.818;2022-07-30T11:43:21;5.23;;;2.50;;
1947;SDS011;974;52.400;9.818;2022-07-30T11:45:51;5.20;;;2.80;;
1947;SDS011;974;52.400;9.818;2022-07-30T11:48:28;6.47;;;2.77;;
1947;SDS011;974;52.400;9.818;2022-07-30T11:50:54;6.37;;;3.10;;
1947;SDS011;974;52.400;9.818;2022-07-30T11:53:20;4.80;;;3.10;;
1947;SDS011;974;52.400;9.818;2022-07-30T11:55:55;4.57;;;2.40;;
1947;SDS011;974;52.400;9.818;2022-07-30T11:58:26;4.67;;;2.50;;
1947;SDS011;974;52.400;9.818;2022-07-30T12:00:54;4.70;;;2.60;;
1947;SDS011;974;52.400;9.818;2022-07-30T12:03:22;6.33;;;2.93;;
1947;SDS011;974;52.400;9.818;2022-07-30T12:05:50;5.70;;;2.80;;
1947;SDS011;974;52.400;9.818;2022-07-30T12:08:16;6.00;;;3.37;;
1947;SDS011;974;52.400;9.818;2022-07-30T12:10:42;3.40;;;2.33;;
1947;SDS011;974;52.400;9.818;2022-07-30T12:13:18;4.13;;;2.77;;
1947;SDS011;974;52.400;9.818;2022-07-30T12:15:45;5.30;;;3.73;;
1947;SDS011;974;52.400;9.818;2022-07-30T12:18:11;6.53;;;3.53;;
1947;SDS011;974;52.400;9.818;2022-07-30T12:20:41;4.20;;;2.87;;
1947;SDS011;974;52.400;9.818;2022-07-30T12:23:10;4.63;;;3.20;;
1947;SDS011;974;52.400;9.818;2022-07-30T12:25:40;5.33;;;3.80;;
1947;SDS011;974;52.400;9.818;2022-07-30T12:28:07;6.17;;;3.60;;
1947;SDS011;974;52.400;9.818;2022-07-30T12:30:36;5.20;;;3.33;;
1947;SDS011;974;52.400;9.818;2022-07-30T12:33:02;4.20;;;3.20;;
1947;SDS011;974;52.400;9.818;2022-07-30T12:35:44;4.13;;;2.60;;
1947;SDS011;974;52.400;9.818;2022-07-30T12:38:18;4.77;;;3.27;;
1947;SDS011;974;52.400;9.818;2022-07-30T12:41:04;4.70;;;3.23;;
1947;SDS011;974;52.400;9.818;2022-07-30T12:48:52;4.67;;;3.00;;
1947;SDS011;974;52.400;9.818;2022-07-30T12:51:27;8.10;;;3.83;;
1947;SDS011;974;52.400;9.818;2022-07-30T12:53:56;7.73;;;3.27;;
1947;SDS011;974;52.400;9.818;2022-07-30T12:56:26;7.70;;;5.00;;
1947;SDS011;974;52.400;9.818;2022-07-30T12:58:53;6.10;;;3.57;;
1947;SDS011;974;52.400;9.818;2022-07-30T13:04:05;4.43;;;3.10;;
1947;SDS011;974;52.400;9.818;2022-07-30T13:06:31;5.03;;;3.03;;
1947;SDS011;974;52.400;9.818;2022-07-30T13:08:57;5.40;;;3.40;;
1947;SDS011;974;52.400;9.818;2022-07-30T13:11:24;6.27;;;3.10;;
1947;SDS011;974;52.400;9.818;2022-07-30T13:14:10;6.47;;;3.27;;
1947;SDS011;974;52.400;9.818;2022-07-30T13:16:38;7.40;;;3.60;;
1947;SDS011;974;52.400;9.818;2022-07-30T13:19:07;5.20;;;3.20;;
1947;SDS011;974;52.400;9.818;2022-07-30T13:21:38;5.53;;;3.20;;
1947;SDS011;974;52.400;9.818;2022-07-30T13:24:05;4.83;;;3.27;;
1947;SDS011;974;52.400;9.818;2022-07-30T13:26:31;5.50;;;3.50;;
1947;SDS011;974;52.400;9.818;2022-07-30T13:28:59;4.77;;;3.60;;
1947;SDS011;974;52.400;9.818;2022-07-30T13:31:25;7.43;;;3.60;;
1947;SDS011;974;52.400;9.818;2022-07-30T13:33:50;5.20;;;2.80;;
1947;SDS011;974;52.400;9.818;2022-07-30T13:36:17;7.33;;;3.63;;
1947;SDS011;974;52.400;9.818;2022-07-30T13:38:45;6.27;;;3.60;;
1947;SDS011;974;52.400;9.818;2022-07-30T13:41:12;6.17;;;3.80;;
1947;SDS011;974;52.400;9.818;2022-07-30T13:43:37;6.10;;;3.20;;
1947;SDS011;974;52.400;9.818;2022-07-30T13:46:03;5.17;;;3.33;;
1947;SDS011;974;52.400;9.818;2022-07-30T13:48:29;7.87;;;3.10;;
1947;SDS011;974;52.400;9.818;2022-07-30T13:50:56;9.60;;;3.40;;
1947;SDS011;974;52.400;9.818;2022-07-30T13:53:21;6.37;;;3.27;;
1947;SDS011;974;52.400;9.818;2022-07-30T13:55:47;6.10;;;3.60;;
1947;SDS011;974;52.400;9.818;2022-07-30T13:58:12;5.10;;;3.30;;
1947;SDS011;974;52.400;9.818;2022-07-30T14:00:38;5.40;;;3.00;;
1947;SDS011;974;52.400;9.818;2022-07-30T14:03:06;5.33;;;3.90;;
1947;SDS011;974;52.400;9.818;2022-07-30T14:05:33;5.50;;;3.40;;
1947;SDS011;974;52.400;9.818;2022-07-30T14:08:00;4.40;;;2.87;;
1947;SDS011;974;52.400;9.818;2022-07-30T14:10:26;5.43;;;3.60;;
1947;SDS011;974;52.400;9.818;2022-07-30T14:12:52;4.20;;;2.90;;
1947;SDS011;974;52.400;9.818;2022-07-30T14:15:19;4.00;;;2.80;;
1947;SDS011;974;52.400;9.818;2022-07-30T14:17:45;4.70;;;2.90;;
1947;SDS011;974;52.400;9.818;2022-07-30T14:20:10;4.80;;;3.50;;
1947;SDS011;974;52.400;9.818;2022-07-30T14:22:36;4.50;;;3.27;;
1947;SDS011;974;52.400;9.818;2022-07-30T14:25:02;5.10;;;3.13;;
1947;SDS011;974;52.400;9.818;2022-07-30T14:27:28;5.73;;;3.60;;
1947;SDS011;974;52.400;9.818;2022-07-30T14:29:54;4.20;;;2.90;;
1947;SDS011;974;52.400;9.818;2022-07-30T14:32:19;4.13;;;2.90;;
1947;SDS011;974;52.400;9.818;2022-07-30T14:34:45;5.30;;;3.60;;
1947;SDS011;974;52.400;9.818;2022-07-30T14:37:10;5.50;;;3.13;;
1947;SDS011;974;52.400;9.818;2022-07-30T14:39:35;6.63;;;3.33;;
1947;SDS011;974;52.400;9.818;2022-07-30T14:42:01;7.07;;;3.77;;
1947;SDS011;974;52.400;9.818;2022-07-30T14:44:26;5.37;;;3.07;;
1947;SDS011;974;52.400;9.818;2022-07-30T14:46:52;5.53;;;4.53;;
1947;SDS011;974;52.400;9.818;2022-07-30T14:49:18;6.00;;;3.60;;
1947;SDS011;974;52.400;9.818;2022-07-30T14:51:47;5.43;;;3.70;;
1947;SDS011;974;52.400;9.818;2022-07-30T14:54:12;5.20;;;3.97;;
1947;SDS011;974;52.400;9.818;2022-07-30T14:56:38;5.70;;;3.70;;
1947;SDS011;974;52.400;9.818;2022-07-30T14:59:04;5.07;;;3.60;;
1947;SDS011;974;52.400;9.818;2022-07-30T15:01:29;6.53;;;3.60;;
1947;SDS011;974;52.400;9.818;2022-07-30T15:03:55;6.70;;;4.17;;
1947;SDS011;974;52.400;9.818;2022-07-30T15:06:20;5.43;;;3.80;;
1947;SDS011;974;52.400;9.818;2022-07-30T15:08:47;5.00;;;3.60;;
1947;SDS011;974;52.400;9.818;2022-07-30T15:11:12;6.00;;;4.00;;
1947;SDS011;974;52.400;9.818;2022-07-30T15:13:38;5.47;;;4.10;;
1947;SDS011;974;52.400;9.818;2022-07-30T15:16:04;5.93;;;3.90;;
1947;SDS011;974;52.400;9.818;2022-07-30T15:18:30;7.50;;;3.93;;
1947;SDS011;974;52.400;9.818;2022-07-30T15:20:57;9.83;;;3.80;;
1947;SDS011;974;52.400;9.818;2022-07-30T15:23:23;5.90;;;3.93;;
1947;SDS011;974;52.400;9.818;2022-07-30T15:25:48;8.43;;;4.60;;
1947;SDS011;974;52.400;9.818;2022-07-30T15:28:14;7.10;;;4.40;;
1947;SDS011;974;52.400;9.818;2022-07-30T15:30:39;6.40;;;4.30;;
1947;SDS011;974;52.400;9.818;2022-07-30T15:33:05;5.90;;;4.27;;
1947;SDS011;974;52.400;9.818;2022-07-30T15:35:31;6.20;;;4.00;;
1947;SDS011;974;52.400;9.818;2022-07-30T15:37:56;9.27;;;3.90;;
1947;SDS011;974;52.400;9.818;2022-07-30T15:40:22;5.80;;;4.07;;
1947;SDS011;974;52.400;9.818;2022-07-30T15:42:48;6.27;;;4.00;;
1947;SDS011;974;52.400;9.818;2022-07-30T15:45:13;7.60;;;3.93;;
1947;SDS011;974;52.400;9.818;2022-07-30T15:47:39;5.83;;;3.80;;
1947;SDS011;974;52.400;9.818;2022-07-30T15:50:05;7.70;;;4.13;;
1947;SDS011;974;52.400;9.818;2022-07-30T15:52:31;5.40;;;4.20;;
1947;SDS011;974;52.400;9.818;2022-07-30T15:55:00;7.30;;;4.63;;
1947;SDS011;974;52.400;9.818;2022-07-30T15:57:26;9.30;;;4.50;;
1947;SDS011;974;52.400;9.818;2022-07-30T15:59:52;6.53;;;4.30;;
1947;SDS011;974;52.400;9.818;2022-07-30T16:02:17;10.40;;;4.67;;
1947;SDS011;974;52.400;9.818;2022-07-30T16:04:43;7.93;;;4.50;;
1947;SDS011;974;52.400;9.818;2022-07-30T16:07:08;7.73;;;4.83;;
1947;SDS011;974;52.400;9.818;2022-07-30T16:09:34;9.10;;;5.20;;
1947;SDS011;974;52.400;9.818;2022-07-30T16:11:59;6.63;;;4.50;;
1947;SDS011;974;52.400;9.818;2022-07-30T16:14:25;7.10;;;5.20;;
1947;SDS011;974;52.400;9.818;2022-07-30T16:16:51;8.23;;;4.23;;
1947;SDS011;974;52.400;9.818;2022-07-30T16:19:16;5.30;;;4.10;;
1947;SDS011;974;52.400;9.818;2022-07-30T16:21:42;6.03;;;4.77;;
1947;SDS011;974;52.400;9.818;2022-07-30T16:24:08;7.00;;;5.10;;
1947;SDS011;974;52.400;9.818;2022-07-30T16:26:33;6.37;;;4.00;;
1947;SDS011;974;52.400;9.818;2022-07-30T16:29:01;8.23;;;4.80;;